Terminal Aerodrome Forecast
Issued by NWS

Home | Current Version | Previous Version | Text Only | Print | Product List | Glossary On
Versions: 1 2 3 4 5 6 7 8 9 10 11 12 13 14 15 16 17 18 19 20 21 22 23 24 25 26 27 28 29 30
000
FTUS41 KPHI 240633 AAA
TAFMIV
TAF AMD
KMIV 240633Z 2407/2506 02011G20KT 3SM -RADZ BR OVC015
     FM241200 35013G23KT 5SM -RADZ BR OVC015
     FM241700 32014G24KT P6SM -SHRA OVC025
     FM242300 30010G20KT P6SM BKN035=

USA.gov is the U.S. government's official web portal to all federal, state and local government web resources and services.